sensor_id;sensor_type;location;lat;lon;timestamp;temperature;humidity
20590;DHT22;10453;50.810;12.540;2023-12-04T00:02:27;-7.20;99.90
20590;DHT22;10453;50.810;12.540;2023-12-04T00:06:45;-7.30;99.90
20590;DHT22;10453;50.810;12.540;2023-12-04T00:11:02;-7.30;99.90
20590;DHT22;10453;50.810;12.540;2023-12-04T00:15:20;-7.30;99.90
20590;DHT22;10453;50.810;12.540;2023-12-04T00:19:38;-7.30;99.90
20590;DHT22;10453;50.810;12.540;2023-12-04T00:23:55;-7.30;99.90
20590;DHT22;10453;50.810;12.540;2023-12-04T00:28:12;-7.30;99.90
20590;DHT22;10453;50.810;12.540;2023-12-04T00:32:31;-7.30;99.90
20590;DHT22;10453;50.810;12.540;2023-12-04T00:36:48;-7.20;99.90
20590;DHT22;10453;50.810;12.540;2023-12-04T00:41:05;-7.10;99.90
20590;DHT22;10453;50.810;12.540;2023-12-04T00:45:22;-7.10;99.90
20590;DHT22;10453;50.810;12.540;2023-12-04T00:49:39;-7.00;99.90
20590;DHT22;10453;50.810;12.540;2023-12-04T00:53:57;-6.90;99.90
20590;DHT22;10453;50.810;12.540;2023-12-04T00:58:14;-6.90;99.90
20590;DHT22;10453;50.810;12.540;2023-12-04T01:02:31;-6.90;99.90
20590;DHT22;10453;50.810;12.540;2023-12-04T01:06:49;-6.80;99.90
20590;DHT22;10453;50.810;12.540;2023-12-04T01:11:06;-6.80;99.90
20590;DHT22;10453;50.810;12.540;2023-12-04T01:15:24;-6.80;99.90
20590;DHT22;10453;50.810;12.540;2023-12-04T01:19:41;-6.70;99.90
20590;DHT22;10453;50.810;12.540;2023-12-04T01:23:58;-6.80;99.90
20590;DHT22;10453;50.810;12.540;2023-12-04T01:28:15;-6.80;99.90
20590;DHT22;10453;50.810;12.540;2023-12-04T01:32:32;-6.80;99.90
20590;DHT22;10453;50.810;12.540;2023-12-04T01:36:50;-6.70;99.90
20590;DHT22;10453;50.810;12.540;2023-12-04T01:41:07;-6.70;99.90
20590;DHT22;10453;50.810;12.540;2023-12-04T01:45:24;-6.80;99.90
20590;DHT22;10453;50.810;12.540;2023-12-04T01:49:41;-6.80;99.90
20590;DHT22;10453;50.810;12.540;2023-12-04T01:53:59;-6.90;99.90
20590;DHT22;10453;50.810;12.540;2023-12-04T01:58:17;-7.10;99.90
20590;DHT22;10453;50.810;12.540;2023-12-04T02:02:34;-7.20;99.90
20590;DHT22;10453;50.810;12.540;2023-12-04T02:06:52;-7.20;99.90
20590;DHT22;10453;50.810;12.540;2023-12-04T02:11:09;-7.30;99.90
20590;DHT22;10453;50.810;12.540;2023-12-04T02:15:26;-7.20;99.90
20590;DHT22;10453;50.810;12.540;2023-12-04T02:19:44;-7.20;99.90
20590;DHT22;10453;50.810;12.540;2023-12-04T02:24:02;-7.20;99.90
20590;DHT22;10453;50.810;12.540;2023-12-04T02:28:19;-7.20;99.90
20590;DHT22;10453;50.810;12.540;2023-12-04T02:32:42;-7.20;99.90
20590;DHT22;10453;50.810;12.540;2023-12-04T02:37:02;-7.20;99.90
20590;DHT22;10453;50.810;12.540;2023-12-04T02:41:20;-7.20;99.90
20590;DHT22;10453;50.810;12.540;2023-12-04T02:45:37;-7.30;99.90
20590;DHT22;10453;50.810;12.540;2023-12-04T02:49:54;-7.30;99.90
20590;DHT22;10453;50.810;12.540;2023-12-04T02:54:12;-7.30;99.90
20590;DHT22;10453;50.810;12.540;2023-12-04T02:58:29;-7.30;99.90
20590;DHT22;10453;50.810;12.540;2023-12-04T03:02:46;-7.40;99.90
20590;DHT22;10453;50.810;12.540;2023-12-04T03:07:03;-7.40;99.90
20590;DHT22;10453;50.810;12.540;2023-12-04T03:11:22;-7.40;99.90
20590;DHT22;10453;50.810;12.540;2023-12-04T03:15:39;-7.60;99.90
20590;DHT22;10453;50.810;12.540;2023-12-04T03:19:56;-7.60;99.90
20590;DHT22;10453;50.810;12.540;2023-12-04T03:24:13;-7.60;99.90
20590;DHT22;10453;50.810;12.540;2023-12-04T03:28:31;-7.60;99.90
20590;DHT22;10453;50.810;12.540;2023-12-04T03:32:48;-7.60;99.90
20590;DHT22;10453;50.810;12.540;2023-12-04T03:37:05;-7.60;99.90
20590;DHT22;10453;50.810;12.540;2023-12-04T03:41:22;-7.60;99.90
20590;DHT22;10453;50.810;12.540;2023-12-04T03:45:40;-7.60;99.90
20590;DHT22;10453;50.810;12.540;2023-12-04T03:49:57;-7.50;99.90
20590;DHT22;10453;50.810;12.540;2023-12-04T03:54:14;-7.40;99.90
20590;DHT22;10453;50.810;12.540;2023-12-04T03:58:32;-7.20;99.90
20590;DHT22;10453;50.810;12.540;2023-12-04T04:02:49;-7.10;99.90
20590;DHT22;10453;50.810;12.540;2023-12-04T04:07:06;-7.00;99.90
20590;DHT22;10453;50.810;12.540;2023-12-04T04:11:23;-6.90;99.90
20590;DHT22;10453;50.810;12.540;2023-12-04T04:15:41;-6.70;99.90
20590;DHT22;10453;50.810;12.540;2023-12-04T04:19:58;-6.60;99.90
20590;DHT22;10453;50.810;12.540;2023-12-04T04:24:16;-6.30;99.90
20590;DHT22;10453;50.810;12.540;2023-12-04T04:28:33;-6.10;99.90
20590;DHT22;10453;50.810;12.540;2023-12-04T04:32:50;-6.00;99.90
20590;DHT22;10453;50.810;12.540;2023-12-04T04:37:08;-5.80;99.90
20590;DHT22;10453;50.810;12.540;2023-12-04T04:41:25;-5.70;99.90
20590;DHT22;10453;50.810;12.540;2023-12-04T04:45:42;-5.60;99.90
20590;DHT22;10453;50.810;12.540;2023-12-04T04:49:59;-5.50;99.90
20590;DHT22;10453;50.810;12.540;2023-12-04T04:54:16;-5.40;99.90
20590;DHT22;10453;50.810;12.540;2023-12-04T04:58:34;-5.40;99.90
20590;DHT22;10453;50.810;12.540;2023-12-04T05:02:51;-5.50;99.90
20590;DHT22;10453;50.810;12.540;2023-12-04T05:07:08;-5.40;99.90
20590;DHT22;10453;50.810;12.540;2023-12-04T05:11:26;-5.30;99.90
20590;DHT22;10453;50.810;12.540;2023-12-04T05:15:43;-5.30;99.90
20590;DHT22;10453;50.810;12.540;2023-12-04T05:20:00;-5.30;99.90
20590;DHT22;10453;50.810;12.540;2023-12-04T05:24:18;-5.40;99.90
20590;DHT22;10453;50.810;12.540;2023-12-04T05:28:44;-5.50;99.90
20590;DHT22;10453;50.810;12.540;2023-12-04T05:33:01;-5.50;99.90
20590;DHT22;10453;50.810;12.540;2023-12-04T05:37:19;-5.70;99.90
20590;DHT22;10453;50.810;12.540;2023-12-04T05:41:36;-5.80;99.90
20590;DHT22;10453;50.810;12.540;2023-12-04T05:45:53;-5.90;99.90
20590;DHT22;10453;50.810;12.540;2023-12-04T05:50:11;-6.00;99.90
20590;DHT22;10453;50.810;12.540;2023-12-04T05:54:28;-6.00;99.90
20590;DHT22;10453;50.810;12.540;2023-12-04T05:58:45;-5.90;99.90
20590;DHT22;10453;50.810;12.540;2023-12-04T06:03:02;-5.90;99.90
20590;DHT22;10453;50.810;12.540;2023-12-04T06:07:20;-6.00;99.90
20590;DHT22;10453;50.810;12.540;2023-12-04T06:11:37;-6.00;99.90
20590;DHT22;10453;50.810;12.540;2023-12-04T06:15:54;-6.00;99.90
20590;DHT22;10453;50.810;12.540;2023-12-04T06:20:11;-6.10;99.90
20590;DHT22;10453;50.810;12.540;2023-12-04T06:24:30;-6.10;99.90
20590;DHT22;10453;50.810;12.540;2023-12-04T06:28:48;-6.20;99.90
20590;DHT22;10453;50.810;12.540;2023-12-04T06:33:05;-6.30;99.90
20590;DHT22;10453;50.810;12.540;2023-12-04T06:37:23;-6.40;99.90
20590;DHT22;10453;50.810;12.540;2023-12-04T06:41:40;-6.30;99.90
20590;DHT22;10453;50.810;12.540;2023-12-04T06:45:59;-6.30;99.90
20590;DHT22;10453;50.810;12.540;2023-12-04T06:50:16;-6.40;99.90
20590;DHT22;10453;50.810;12.540;2023-12-04T06:54:34;-6.40;99.90
20590;DHT22;10453;50.810;12.540;2023-12-04T06:58:51;-6.40;99.90
20590;DHT22;10453;50.810;12.540;2023-12-04T07:03:08;-6.40;99.90
20590;DHT22;10453;50.810;12.540;2023-12-04T07:07:25;-6.40;99.90
20590;DHT22;10453;50.810;12.540;2023-12-04T07:11:43;-6.40;99.90
20590;DHT22;10453;50.810;12.540;2023-12-04T07:16:00;-6.30;99.90
20590;DHT22;10453;50.810;12.540;2023-12-04T07:20:18;-6.40;99.90
20590;DHT22;10453;50.810;12.540;2023-12-04T07:24:36;-6.20;99.90
20590;DHT22;10453;50.810;12.540;2023-12-04T07:28:53;-6.10;99.90
20590;DHT22;10453;50.810;12.540;2023-12-04T07:33:11;-6.00;99.90
20590;DHT22;10453;50.810;12.540;2023-12-04T07:37:34;-6.00;99.90
20590;DHT22;10453;50.810;12.540;2023-12-04T07:41:52;-5.80;99.90
20590;DHT22;10453;50.810;12.540;2023-12-04T07:46:10;-5.80;99.90
20590;DHT22;10453;50.810;12.540;2023-12-04T07:50:31;-5.60;99.90
20590;DHT22;10453;50.810;12.540;2023-12-04T07:54:48;-5.40;99.90
20590;DHT22;10453;50.810;12.540;2023-12-04T07:59:06;-5.30;99.90
20590;DHT22;10453;50.810;12.540;2023-12-04T08:03:23;-5.30;99.90
20590;DHT22;10453;50.810;12.540;2023-12-04T08:07:41;-5.20;99.90
20590;DHT22;10453;50.810;12.540;2023-12-04T08:11:58;-4.90;99.90
20590;DHT22;10453;50.810;12.540;2023-12-04T08:16:16;-4.70;99.90
20590;DHT22;10453;50.810;12.540;2023-12-04T08:20:33;-4.60;99.90
20590;DHT22;10453;50.810;12.540;2023-12-04T08:24:57;-4.30;99.90
20590;DHT22;10453;50.810;12.540;2023-12-04T08:29:15;-4.10;99.90
20590;DHT22;10453;50.810;12.540;2023-12-04T08:33:32;-4.20;99.90
20590;DHT22;10453;50.810;12.540;2023-12-04T08:37:49;-3.90;99.90
20590;DHT22;10453;50.810;12.540;2023-12-04T08:42:07;-3.70;99.90
20590;DHT22;10453;50.810;12.540;2023-12-04T08:46:33;-3.60;99.90
20590;DHT22;10453;50.810;12.540;2023-12-04T08:50:50;-3.60;99.90
20590;DHT22;10453;50.810;12.540;2023-12-04T08:55:08;-3.50;99.90
20590;DHT22;10453;50.810;12.540;2023-12-04T08:59:26;-3.40;99.90
20590;DHT22;10453;50.810;12.540;2023-12-04T09:03:43;-3.20;99.90
20590;DHT22;10453;50.810;12.540;2023-12-04T09:08:01;-3.10;99.90
20590;DHT22;10453;50.810;12.540;2023-12-04T09:12:40;-3.00;99.90
20590;DHT22;10453;50.810;12.540;2023-12-04T09:16:58;-2.70;99.90
20590;DHT22;10453;50.810;12.540;2023-12-04T09:21:15;-2.70;99.90
20590;DHT22;10453;50.810;12.540;2023-12-04T09:25:33;-2.40;99.90
20590;DHT22;10453;50.810;12.540;2023-12-04T09:29:51;-2.10;99.90
20590;DHT22;10453;50.810;12.540;2023-12-04T09:34:09;-2.00;99.90
20590;DHT22;10453;50.810;12.540;2023-12-04T09:38:27;-2.00;99.90
20590;DHT22;10453;50.810;12.540;2023-12-04T09:42:45;-1.70;99.90
20590;DHT22;10453;50.810;12.540;2023-12-04T09:47:03;-1.90;99.90
20590;DHT22;10453;50.810;12.540;2023-12-04T09:51:22;-2.00;99.90
20590;DHT22;10453;50.810;12.540;2023-12-04T09:55:40;-2.10;99.90
20590;DHT22;10453;50.810;12.540;2023-12-04T10:00:00;-2.20;99.90
20590;DHT22;10453;50.810;12.540;2023-12-04T10:04:18;-2.20;99.90
20590;DHT22;10453;50.810;12.540;2023-12-04T10:08:36;-2.00;99.90
20590;DHT22;10453;50.810;12.540;2023-12-04T10:12:53;-2.10;99.90
20590;DHT22;10453;50.810;12.540;2023-12-04T10:17:15;-2.00;99.90
20590;DHT22;10453;50.810;12.540;2023-12-04T10:21:36;-1.90;99.90
20590;DHT22;10453;50.810;12.540;2023-12-04T10:25:55;-1.50;99.90
20590;DHT22;10453;50.810;12.540;2023-12-04T10:30:42;-1.20;99.90
20590;DHT22;10453;50.810;12.540;2023-12-04T10:34:59;-1.20;99.90
20590;DHT22;10453;50.810;12.540;2023-12-04T10:39:17;-1.20;99.90
20590;DHT22;10453;50.810;12.540;2023-12-04T10:43:35;-1.30;99.90
20590;DHT22;10453;50.810;12.540;2023-12-04T10:47:53;-0.90;99.90
20590;DHT22;10453;50.810;12.540;2023-12-04T10:52:10;-1.00;99.90
20590;DHT22;10453;50.810;12.540;2023-12-04T10:56:35;-0.80;99.90
20590;DHT22;10453;50.810;12.540;2023-12-04T11:00:54;-0.50;99.90
20590;DHT22;10453;50.810;12.540;2023-12-04T11:05:16;-0.40;99.90
20590;DHT22;10453;50.810;12.540;2023-12-04T11:09:39;-0.30;99.90
20590;DHT22;10453;50.810;12.540;2023-12-04T11:14:00;-0.30;99.90
20590;DHT22;10453;50.810;12.540;2023-12-04T11:18:21;0.10;99.90
20590;DHT22;10453;50.810;12.540;2023-12-04T11:22:40;0.50;99.90
20590;DHT22;10453;50.810;12.540;2023-12-04T11:26:58;0.70;99.90
20590;DHT22;10453;50.810;12.540;2023-12-04T11:31:16;0.80;99.90
20590;DHT22;10453;50.810;12.540;2023-12-04T11:35:34;0.80;99.90
20590;DHT22;10453;50.810;12.540;2023-12-04T11:39:53;0.50;99.90
20590;DHT22;10453;50.810;12.540;2023-12-04T11:44:13;0.50;99.90
20590;DHT22;10453;50.810;12.540;2023-12-04T11:48:31;0.50;99.90
20590;DHT22;10453;50.810;12.540;2023-12-04T11:52:49;0.50;99.90
20590;DHT22;10453;50.810;12.540;2023-12-04T12:01:26;0.40;99.90
20590;DHT22;10453;50.810;12.540;2023-12-04T12:05:44;0.60;99.90
20590;DHT22;10453;50.810;12.540;2023-12-04T12:10:02;0.50;99.90
20590;DHT22;10453;50.810;12.540;2023-12-04T12:14:22;0.10;99.90
20590;DHT22;10453;50.810;12.540;2023-12-04T12:18:40;0.20;99.90
20590;DHT22;10453;50.810;12.540;2023-12-04T12:22:58;0.30;99.90
20590;DHT22;10453;50.810;12.540;2023-12-04T12:27:16;0.40;99.90
20590;DHT22;10453;50.810;12.540;2023-12-04T12:31:35;0.50;99.90
20590;DHT22;10453;50.810;12.540;2023-12-04T12:35:52;0.50;99.90
20590;DHT22;10453;50.810;12.540;2023-12-04T12:40:21;0.60;99.90
20590;DHT22;10453;50.810;12.540;2023-12-04T12:44:38;0.70;99.90
20590;DHT22;10453;50.810;12.540;2023-12-04T12:48:57;0.70;99.90
20590;DHT22;10453;50.810;12.540;2023-12-04T12:53:17;0.60;99.90
20590;DHT22;10453;50.810;12.540;2023-12-04T12:57:34;0.70;99.90
20590;DHT22;10453;50.810;12.540;2023-12-04T13:01:52;0.60;99.90
20590;DHT22;10453;50.810;12.540;2023-12-04T13:06:10;0.50;99.90
20590;DHT22;10453;50.810;12.540;2023-12-04T13:10:27;0.60;99.90
20590;DHT22;10453;50.810;12.540;2023-12-04T13:14:45;0.70;99.90
20590;DHT22;10453;50.810;12.540;2023-12-04T13:19:02;0.80;99.90
20590;DHT22;10453;50.810;12.540;2023-12-04T13:23:19;0.80;99.90
20590;DHT22;10453;50.810;12.540;2023-12-04T13:27:39;0.70;99.90
20590;DHT22;10453;50.810;12.540;2023-12-04T13:31:56;0.70;99.90
20590;DHT22;10453;50.810;12.540;2023-12-04T13:36:14;0.70;99.90
20590;DHT22;10453;50.810;12.540;2023-12-04T13:40:31;0.50;99.90
20590;DHT22;10453;50.810;12.540;2023-12-04T13:44:51;0.50;99.90
20590;DHT22;10453;50.810;12.540;2023-12-04T13:49:10;0.50;99.90
20590;DHT22;10453;50.810;12.540;2023-12-04T13:53:27;0.40;99.90
20590;DHT22;10453;50.810;12.540;2023-12-04T13:57:47;0.40;99.90
20590;DHT22;10453;50.810;12.540;2023-12-04T14:02:16;0.50;99.90
20590;DHT22;10453;50.810;12.540;2023-12-04T14:06:34;0.40;99.90
20590;DHT22;10453;50.810;12.540;2023-12-04T14:10:52;0.40;99.90
20590;DHT22;10453;50.810;12.540;2023-12-04T14:15:10;0.20;99.90
20590;DHT22;10453;50.810;12.540;2023-12-04T14:19:28;0.30;99.90
20590;DHT22;10453;50.810;12.540;2023-12-04T14:23:45;0.10;99.90
20590;DHT22;10453;50.810;12.540;2023-12-04T14:28:02;-0.10;99.90
20590;DHT22;10453;50.810;12.540;2023-12-04T14:32:20;-0.10;99.90
20590;DHT22;10453;50.810;12.540;2023-12-04T14:36:41;-0.10;99.90
20590;DHT22;10453;50.810;12.540;2023-12-04T14:40:59;-0.10;99.90
20590;DHT22;10453;50.810;12.540;2023-12-04T14:45:16;-0.10;99.90
20590;DHT22;10453;50.810;12.540;2023-12-04T14:49:34;0.00;99.90
20590;DHT22;10453;50.810;12.540;2023-12-04T14:53:54;0.10;99.90
20590;DHT22;10453;50.810;12.540;2023-12-04T14:58:31;0.10;99.90
20590;DHT22;10453;50.810;12.540;2023-12-04T15:03:13;0.00;99.90
20590;DHT22;10453;50.810;12.540;2023-12-04T15:07:49;0.00;99.90
20590;DHT22;10453;50.810;12.540;2023-12-04T15:12:25;-0.10;99.90
20590;DHT22;10453;50.810;12.540;2023-12-04T15:17:11;-0.20;99.90
20590;DHT22;10453;50.810;12.540;2023-12-04T15:21:51;-0.30;99.90
20590;DHT22;10453;50.810;12.540;2023-12-04T15:26:10;-0.30;99.90
20590;DHT22;10453;50.810;12.540;2023-12-04T15:30:30;-0.40;99.90
20590;DHT22;10453;50.810;12.540;2023-12-04T15:34:48;-0.40;99.90
20590;DHT22;10453;50.810;12.540;2023-12-04T15:39:07;-0.50;99.90
20590;DHT22;10453;50.810;12.540;2023-12-04T15:43:27;-0.50;99.90
20590;DHT22;10453;50.810;12.540;2023-12-04T15:47:44;-0.50;99.90
20590;DHT22;10453;50.810;12.540;2023-12-04T15:52:01;-0.50;99.90
20590;DHT22;10453;50.810;12.540;2023-12-04T15:56:21;-0.50;99.90
20590;DHT22;10453;50.810;12.540;2023-12-04T16:00:38;-0.50;99.90
20590;DHT22;10453;50.810;12.540;2023-12-04T16:04:56;-0.60;99.90
20590;DHT22;10453;50.810;12.540;2023-12-04T16:09:17;-0.60;99.90
20590;DHT22;10453;50.810;12.540;2023-12-04T16:13:35;-0.60;99.90
20590;DHT22;10453;50.810;12.540;2023-12-04T16:17:53;-0.60;99.90
20590;DHT22;10453;50.810;12.540;2023-12-04T16:22:10;-0.60;99.90
20590;DHT22;10453;50.810;12.540;2023-12-04T16:26:27;-0.60;99.90
20590;DHT22;10453;50.810;12.540;2023-12-04T16:30:45;-0.70;99.90
20590;DHT22;10453;50.810;12.540;2023-12-04T16:35:02;-0.80;99.90
20590;DHT22;10453;50.810;12.540;2023-12-04T16:39:20;-0.80;99.90
20590;DHT22;10453;50.810;12.540;2023-12-04T16:43:37;-0.80;99.90
20590;DHT22;10453;50.810;12.540;2023-12-04T16:47:54;-0.70;99.90
20590;DHT22;10453;50.810;12.540;2023-12-04T16:52:22;-0.80;99.90
20590;DHT22;10453;50.810;12.540;2023-12-04T16:56:40;-0.80;99.90
20590;DHT22;10453;50.810;12.540;2023-12-04T17:00:57;-0.70;99.90
20590;DHT22;10453;50.810;12.540;2023-12-04T17:05:15;-0.60;99.90
20590;DHT22;10453;50.810;12.540;2023-12-04T17:09:33;-0.70;99.90
20590;DHT22;10453;50.810;12.540;2023-12-04T17:13:51;-0.70;99.90
20590;DHT22;10453;50.810;12.540;2023-12-04T17:18:08;-0.80;99.90
20590;DHT22;10453;50.810;12.540;2023-12-04T17:22:25;-0.70;99.90
20590;DHT22;10453;50.810;12.540;2023-12-04T17:26:45;-0.70;99.90
20590;DHT22;10453;50.810;12.540;2023-12-04T17:31:02;-0.70;99.90
20590;DHT22;10453;50.810;12.540;2023-12-04T17:35:20;-0.80;99.90
20590;DHT22;10453;50.810;12.540;2023-12-04T17:39:38;-0.70;99.90
20590;DHT22;10453;50.810;12.540;2023-12-04T17:43:55;-0.80;99.90
20590;DHT22;10453;50.810;12.540;2023-12-04T17:48:13;-0.80;99.90
20590;DHT22;10453;50.810;12.540;2023-12-04T17:52:31;-0.80;99.90
20590;DHT22;10453;50.810;12.540;2023-12-04T17:56:49;-0.90;99.90
20590;DHT22;10453;50.810;12.540;2023-12-04T18:01:07;-0.80;99.90
20590;DHT22;10453;50.810;12.540;2023-12-04T18:05:24;-0.70;99.90
20590;DHT22;10453;50.810;12.540;2023-12-04T18:09:41;-0.70;99.90
20590;DHT22;10453;50.810;12.540;2023-12-04T18:14:01;-0.80;99.90
20590;DHT22;10453;50.810;12.540;2023-12-04T18:18:22;-0.70;99.90
20590;DHT22;10453;50.810;12.540;2023-12-04T18:22:40;-0.70;99.90
20590;DHT22;10453;50.810;12.540;2023-12-04T18:26:58;-0.70;99.90
20590;DHT22;10453;50.810;12.540;2023-12-04T18:31:17;-0.70;99.90
20590;DHT22;10453;50.810;12.540;2023-12-04T18:35:36;-0.80;99.90
20590;DHT22;10453;50.810;12.540;2023-12-04T18:39:53;-0.70;99.90
20590;DHT22;10453;50.810;12.540;2023-12-04T18:44:13;-0.80;99.90
20590;DHT22;10453;50.810;12.540;2023-12-04T18:48:31;-0.80;99.90
20590;DHT22;10453;50.810;12.540;2023-12-04T18:52:54;-0.90;99.90
20590;DHT22;10453;50.810;12.540;2023-12-04T18:57:12;-0.80;99.90
20590;DHT22;10453;50.810;12.540;2023-12-04T19:01:29;-0.80;99.90
20590;DHT22;10453;50.810;12.540;2023-12-04T19:05:47;-0.80;99.90
20590;DHT22;10453;50.810;12.540;2023-12-04T19:10:06;-0.90;99.90
20590;DHT22;10453;50.810;12.540;2023-12-04T19:14:23;-0.90;99.90
20590;DHT22;10453;50.810;12.540;2023-12-04T19:18:40;-0.90;99.90
20590;DHT22;10453;50.810;12.540;2023-12-04T19:23:00;-0.90;99.90
20590;DHT22;10453;50.810;12.540;2023-12-04T19:27:18;-0.90;99.90
20590;DHT22;10453;50.810;12.540;2023-12-04T19:31:35;-0.80;99.90
20590;DHT22;10453;50.810;12.540;2023-12-04T19:36:03;-0.90;99.90
20590;DHT22;10453;50.810;12.540;2023-12-04T19:40:20;-0.80;99.90
20590;DHT22;10453;50.810;12.540;2023-12-04T19:44:45;-0.80;99.90
20590;DHT22;10453;50.810;12.540;2023-12-04T19:49:03;-0.70;99.90
20590;DHT22;10453;50.810;12.540;2023-12-04T19:53:20;-0.80;99.90
20590;DHT22;10453;50.810;12.540;2023-12-04T19:57:39;-0.80;99.90
20590;DHT22;10453;50.810;12.540;2023-12-04T20:01:57;-0.70;99.90
20590;DHT22;10453;50.810;12.540;2023-12-04T20:06:14;-0.70;99.90
20590;DHT22;10453;50.810;12.540;2023-12-04T20:10:32;-0.60;99.90
20590;DHT22;10453;50.810;12.540;2023-12-04T20:14:50;-0.60;99.90
20590;DHT22;10453;50.810;12.540;2023-12-04T20:19:08;-0.60;99.90
20590;DHT22;10453;50.810;12.540;2023-12-04T20:23:25;-0.70;99.90
20590;DHT22;10453;50.810;12.540;2023-12-04T20:27:42;-0.70;99.90
20590;DHT22;10453;50.810;12.540;2023-12-04T20:32:00;-0.60;99.90
20590;DHT22;10453;50.810;12.540;2023-12-04T20:36:18;-0.50;99.90
20590;DHT22;10453;50.810;12.540;2023-12-04T20:40:37;-0.50;99.90
20590;DHT22;10453;50.810;12.540;2023-12-04T20:44:54;-0.70;99.90
20590;DHT22;10453;50.810;12.540;2023-12-04T20:49:11;-0.60;99.90
20590;DHT22;10453;50.810;12.540;2023-12-04T20:53:29;-0.60;99.90
20590;DHT22;10453;50.810;12.540;2023-12-04T20:57:46;-0.50;99.90
20590;DHT22;10453;50.810;12.540;2023-12-04T21:02:03;-0.50;99.90
20590;DHT22;10453;50.810;12.540;2023-12-04T21:06:21;-0.50;99.90
20590;DHT22;10453;50.810;12.540;2023-12-04T21:10:40;-0.50;99.90
20590;DHT22;10453;50.810;12.540;2023-12-04T21:14:57;-0.40;99.90
20590;DHT22;10453;50.810;12.540;2023-12-04T21:19:21;-0.50;99.90
20590;DHT22;10453;50.810;12.540;2023-12-04T21:23:39;-0.50;99.90
20590;DHT22;10453;50.810;12.540;2023-12-04T21:27:56;-0.50;99.90
20590;DHT22;10453;50.810;12.540;2023-12-04T21:32:13;-0.70;99.90
20590;DHT22;10453;50.810;12.540;2023-12-04T21:36:30;-0.70;99.90
20590;DHT22;10453;50.810;12.540;2023-12-04T21:40:48;-0.60;99.90
20590;DHT22;10453;50.810;12.540;2023-12-04T21:45:05;-0.60;99.90
20590;DHT22;10453;50.810;12.540;2023-12-04T21:49:22;-0.50;99.90
20590;DHT22;10453;50.810;12.540;2023-12-04T21:53:41;-0.50;99.90
20590;DHT22;10453;50.810;12.540;2023-12-04T21:58:02;-0.40;99.90
20590;DHT22;10453;50.810;12.540;2023-12-04T22:02:20;-0.40;99.90
20590;DHT22;10453;50.810;12.540;2023-12-04T22:06:37;-0.30;99.90
20590;DHT22;10453;50.810;12.540;2023-12-04T22:10:54;-0.30;99.90
20590;DHT22;10453;50.810;12.540;2023-12-04T22:15:12;-0.40;99.90
20590;DHT22;10453;50.810;12.540;2023-12-04T22:19:29;-0.40;99.90
20590;DHT22;10453;50.810;12.540;2023-12-04T22:23:47;-0.30;99.90
20590;DHT22;10453;50.810;12.540;2023-12-04T22:28:04;-0.30;99.90
20590;DHT22;10453;50.810;12.540;2023-12-04T22:32:22;-0.30;99.90
20590;DHT22;10453;50.810;12.540;2023-12-04T22:36:39;-0.30;99.90
20590;DHT22;10453;50.810;12.540;2023-12-04T22:40:57;-0.40;99.90
20590;DHT22;10453;50.810;12.540;2023-12-04T22:45:15;-0.40;99.90
20590;DHT22;10453;50.810;12.540;2023-12-04T22:49:32;-0.40;99.90
20590;DHT22;10453;50.810;12.540;2023-12-04T22:53:50;-0.50;99.90
20590;DHT22;10453;50.810;12.540;2023-12-04T22:58:07;-0.50;99.90
20590;DHT22;10453;50.810;12.540;2023-12-04T23:02:25;-0.70;99.90
20590;DHT22;10453;50.810;12.540;2023-12-04T23:06:42;-0.80;99.90
20590;DHT22;10453;50.810;12.540;2023-12-04T23:11:00;-0.90;99.90
20590;DHT22;10453;50.810;12.540;2023-12-04T23:15:17;-0.90;99.90
20590;DHT22;10453;50.810;12.540;2023-12-04T23:19:35;-0.80;99.90
20590;DHT22;10453;50.810;12.540;2023-12-04T23:23:52;-0.80;99.90
20590;DHT22;10453;50.810;12.540;2023-12-04T23:28:09;-0.70;99.90
20590;DHT22;10453;50.810;12.540;2023-12-04T23:32:26;-0.60;99.90
20590;DHT22;10453;50.810;12.540;2023-12-04T23:36:44;-0.60;99.90
20590;DHT22;10453;50.810;12.540;2023-12-04T23:41:02;-0.60;99.90
20590;DHT22;10453;50.810;12.540;2023-12-04T23:45:19;-0.60;99.90
20590;DHT22;10453;50.810;12.540;2023-12-04T23:49:37;-0.50;99.90
20590;DHT22;10453;50.810;12.540;2023-12-04T23:53:54;-0.50;99.90
20590;DHT22;10453;50.810;12.540;2023-12-04T23:58:11;-0.40;99.90
